sensor_id;sensor_type;location;lat;lon;timestamp;pressure;altitude;pressure_sealevel;temperature;humidity
19508;BME280;40157;42.566;27.526;2023-04-19T00:01:12;100504.63;;;13.58;91.48
19508;BME280;40157;42.566;27.526;2023-04-19T00:03:12;100522.16;;;13.65;91.38
19508;BME280;40157;42.566;27.526;2023-04-19T00:05:14;100507.25;;;13.54;91.52
19508;BME280;40157;42.566;27.526;2023-04-19T00:07:14;100543.25;;;13.76;91.39
19508;BME280;40157;42.566;27.526;2023-04-19T00:09:16;100509.91;;;13.63;91.36
19508;BME280;40157;42.566;27.526;2023-04-19T00:11:16;100529.22;;;13.71;91.58
19508;BME280;40157;42.566;27.526;2023-04-19T00:13:17;100522.19;;;13.70;91.63
19508;BME280;40157;42.566;27.526;2023-04-19T00:15:18;100526.59;;;13.74;91.34
19508;BME280;40157;42.566;27.526;2023-04-19T00:17:18;100474.75;;;13.45;91.28
19508;BME280;40157;42.566;27.526;2023-04-19T00:19:19;100496.72;;;13.57;91.44
19508;BME280;40157;42.566;27.526;2023-04-19T00:21:21;100502.88;;;13.56;91.63
19508;BME280;40157;42.566;27.526;2023-04-19T00:23:21;100522.19;;;13.70;91.58
19508;BME280;40157;42.566;27.526;2023-04-19T00:25:21;100480.03;;;13.45;91.59
19508;BME280;40157;42.566;27.526;2023-04-19T00:27:22;100500.22;;;13.60;91.71
19508;BME280;40157;42.566;27.526;2023-04-19T00:29:22;100510.75;;;13.62;91.62
19508;BME280;40157;42.566;27.526;2023-04-19T00:31:23;100517.81;;;13.66;91.66
19508;BME280;40157;42.566;27.526;2023-04-19T00:33:23;100517.81;;;13.67;91.82
19508;BME280;40157;42.566;27.526;2023-04-19T00:35:24;100523.06;;;13.67;91.83
19508;BME280;40157;42.566;27.526;2023-04-19T00:37:24;100506.38;;;13.65;91.83
19508;BME280;40157;42.566;27.526;2023-04-19T00:39:25;100516.03;;;13.68;91.82
19508;BME280;40157;42.566;27.526;2023-04-19T00:41:25;100497.59;;;13.54;91.80
19508;BME280;40157;42.566;27.526;2023-04-19T00:43:26;100513.38;;;13.59;92.02
19508;BME280;40157;42.566;27.526;2023-04-19T00:45:26;100512.50;;;13.57;92.18
19508;BME280;40157;42.566;27.526;2023-04-19T00:47:27;100481.81;;;13.36;92.21
19508;BME280;40157;42.566;27.526;2023-04-19T00:49:28;100517.78;;;13.57;92.49
19508;BME280;40157;42.566;27.526;2023-04-19T00:51:29;100490.59;;;13.42;92.60
19508;BME280;40157;42.566;27.526;2023-04-19T00:53:30;100523.94;;;13.46;92.87
19508;BME280;40157;42.566;27.526;2023-04-19T00:55:31;100509.00;;;13.42;93.12
19508;BME280;40157;42.566;27.526;2023-04-19T00:57:31;100393.94;;;12.76;93.31
19508;BME280;40157;42.566;27.526;2023-04-19T00:59:33;100484.44;;;13.34;93.44
19508;BME280;40157;42.566;27.526;2023-04-19T01:01:34;100491.44;;;13.37;93.55
19508;BME280;40157;42.566;27.526;2023-04-19T01:03:34;100494.94;;;13.43;93.65
19508;BME280;40157;42.566;27.526;2023-04-19T01:05:35;100456.31;;;13.19;93.48
19508;BME280;40157;42.566;27.526;2023-04-19T01:07:36;100451.03;;;13.22;93.53
19508;BME280;40157;42.566;27.526;2023-04-19T01:09:40;100499.34;;;13.47;93.56
19508;BME280;40157;42.566;27.526;2023-04-19T01:11:42;100445.78;;;13.21;93.50
19508;BME280;40157;42.566;27.526;2023-04-19T01:13:42;100484.41;;;13.39;93.49
19508;BME280;40157;42.566;27.526;2023-04-19T01:15:43;100495.81;;;13.48;93.65
19508;BME280;40157;42.566;27.526;2023-04-19T01:17:43;100478.28;;;13.41;93.79
19508;BME280;40157;42.566;27.526;2023-04-19T01:19:44;100491.47;;;13.47;93.71
19508;BME280;40157;42.566;27.526;2023-04-19T01:21:45;100407.13;;;12.93;93.54
19508;BME280;40157;42.566;27.526;2023-04-19T01:23:46;100481.78;;;13.46;93.53
19508;BME280;40157;42.566;27.526;2023-04-19T01:25:46;100469.50;;;13.36;93.56
19508;BME280;40157;42.566;27.526;2023-04-19T01:27:46;100471.25;;;13.34;93.43
19508;BME280;40157;42.566;27.526;2023-04-19T01:29:47;100464.22;;;13.33;93.52
19508;BME280;40157;42.566;27.526;2023-04-19T01:31:48;100475.66;;;13.43;93.39
19508;BME280;40157;42.566;27.526;2023-04-19T01:33:52;100431.72;;;13.14;93.16
19508;BME280;40157;42.566;27.526;2023-04-19T01:35:53;100416.81;;;13.14;93.35
19508;BME280;40157;42.566;27.526;2023-04-19T01:37:53;100459.84;;;13.37;93.21
19508;BME280;40157;42.566;27.526;2023-04-19T01:39:55;100411.53;;;13.05;93.09
19508;BME280;40157;42.566;27.526;2023-04-19T01:41:55;100465.13;;;13.43;93.36
19508;BME280;40157;42.566;27.526;2023-04-19T01:43:56;100465.97;;;13.43;93.15
19508;BME280;40157;42.566;27.526;2023-04-19T01:45:56;100450.16;;;13.31;92.96
19508;BME280;40157;42.566;27.526;2023-04-19T01:47:57;100406.25;;;13.02;92.82
19508;BME280;40157;42.566;27.526;2023-04-19T01:49:58;100456.34;;;13.38;92.95
19508;BME280;40157;42.566;27.526;2023-04-19T01:51:58;100465.97;;;13.43;92.81
19508;BME280;40157;42.566;27.526;2023-04-19T01:53:59;100476.50;;;13.40;92.84
19508;BME280;40157;42.566;27.526;2023-04-19T01:56:01;100450.16;;;13.31;92.88
19508;BME280;40157;42.566;27.526;2023-04-19T01:58:02;100448.38;;;13.28;93.05
19508;BME280;40157;42.566;27.526;2023-04-19T02:00:02;100458.97;;;13.36;92.85
19508;BME280;40157;42.566;27.526;2023-04-19T02:02:06;100436.09;;;13.17;93.08
19508;BME280;40157;42.566;27.526;2023-04-19T02:04:07;100465.94;;;13.25;93.35
19508;BME280;40157;42.566;27.526;2023-04-19T02:06:11;100445.75;;;13.16;93.48
19508;BME280;40157;42.566;27.526;2023-04-19T02:08:12;100436.09;;;13.07;93.83
19508;BME280;40157;42.566;27.526;2023-04-19T02:10:12;100449.25;;;13.13;93.82
19508;BME280;40157;42.566;27.526;2023-04-19T02:12:13;100457.16;;;13.20;94.06
19508;BME280;40157;42.566;27.526;2023-04-19T02:14:13;100449.25;;;13.15;94.22
19508;BME280;40157;42.566;27.526;2023-04-19T02:16:14;100449.25;;;13.18;94.39
19508;BME280;40157;42.566;27.526;2023-04-19T02:18:14;100444.88;;;13.12;94.46
19508;BME280;40157;42.566;27.526;2023-04-19T02:20:16;100425.56;;;13.01;94.44
19508;BME280;40157;42.566;27.526;2023-04-19T02:22:17;100441.38;;;13.07;94.60
19508;BME280;40157;42.566;27.526;2023-04-19T02:24:18;100450.13;;;13.09;94.57
19508;BME280;40157;42.566;27.526;2023-04-19T02:26:18;100414.13;;;12.85;94.58
19508;BME280;40157;42.566;27.526;2023-04-19T02:28:19;100459.78;;;13.04;94.74
19508;BME280;40157;42.566;27.526;2023-04-19T02:30:20;100454.50;;;13.00;94.98
19508;BME280;40157;42.566;27.526;2023-04-19T02:32:20;100450.09;;;12.97;94.99
19508;BME280;40157;42.566;27.526;2023-04-19T02:34:21;100441.31;;;12.83;95.48
19508;BME280;40157;42.566;27.526;2023-04-19T02:36:21;100449.22;;;12.90;95.61
19508;BME280;40157;42.566;27.526;2023-04-19T02:38:22;100434.28;;;12.82;95.87
19508;BME280;40157;42.566;27.526;2023-04-19T02:40:22;100422.88;;;12.78;95.70
19508;BME280;40157;42.566;27.526;2023-04-19T02:42:24;100448.38;;;12.96;95.74
19508;BME280;40157;42.566;27.526;2023-04-19T02:44:25;100445.72;;;12.96;95.79
19508;BME280;40157;42.566;27.526;2023-04-19T02:46:26;100442.22;;;12.94;95.58
19508;BME280;40157;42.566;27.526;2023-04-19T02:48:27;100421.13;;;12.75;95.36
19508;BME280;40157;42.566;27.526;2023-04-19T02:50:27;100429.03;;;12.85;95.21
19508;BME280;40157;42.566;27.526;2023-04-19T02:52:28;100411.50;;;12.74;95.09
19508;BME280;40157;42.566;27.526;2023-04-19T02:54:28;100439.59;;;13.00;94.95
19508;BME280;40157;42.566;27.526;2023-04-19T02:56:28;100429.94;;;12.96;94.50
19508;BME280;40157;42.566;27.526;2023-04-19T02:58:29;100451.00;;;13.07;94.34
19508;BME280;40157;42.566;27.526;2023-04-19T03:00:29;100407.13;;;12.92;94.25
19508;BME280;40157;42.566;27.526;2023-04-19T03:02:30;100382.56;;;12.79;93.90
19508;BME280;40157;42.566;27.526;2023-04-19T03:04:30;100450.13;;;13.19;93.69
19508;BME280;40157;42.566;27.526;2023-04-19T03:06:31;100442.25;;;13.19;93.45
19508;BME280;40157;42.566;27.526;2023-04-19T03:08:31;100429.97;;;13.16;93.28
19508;BME280;40157;42.566;27.526;2023-04-19T03:10:32;100367.66;;;12.83;92.99
19508;BME280;40157;42.566;27.526;2023-04-19T03:12:32;100441.38;;;13.23;92.84
19508;BME280;40157;42.566;27.526;2023-04-19T03:14:33;100430.84;;;13.17;92.69
19508;BME280;40157;42.566;27.526;2023-04-19T03:16:33;100432.63;;;13.21;92.23
19508;BME280;40157;42.566;27.526;2023-04-19T03:18:34;100434.34;;;13.25;92.14
19508;BME280;40157;42.566;27.526;2023-04-19T03:20:35;100407.16;;;13.15;92.19
19508;BME280;40157;42.566;27.526;2023-04-19T03:22:36;100390.47;;;12.90;91.93
19508;BME280;40157;42.566;27.526;2023-04-19T03:24:37;100392.25;;;13.09;91.89
19508;BME280;40157;42.566;27.526;2023-04-19T03:26:37;100432.59;;;13.30;91.58
19508;BME280;40157;42.566;27.526;2023-04-19T03:28:38;100444.03;;;13.29;91.52
19508;BME280;40157;42.566;27.526;2023-04-19T03:30:38;100443.19;;;13.42;91.17
19508;BME280;40157;42.566;27.526;2023-04-19T03:32:39;100435.28;;;13.39;91.11
19508;BME280;40157;42.566;27.526;2023-04-19T03:34:39;100415.97;;;13.34;91.10
19508;BME280;40157;42.566;27.526;2023-04-19T03:36:40;100447.56;;;13.46;91.30
19508;BME280;40157;42.566;27.526;2023-04-19T03:38:40;100465.13;;;13.47;91.49
19508;BME280;40157;42.566;27.526;2023-04-19T03:40:42;100437.88;;;13.45;91.51
19508;BME280;40157;42.566;27.526;2023-04-19T03:42:43;100443.16;;;13.51;91.52
19508;BME280;40157;42.566;27.526;2023-04-19T03:44:43;100444.06;;;13.47;91.78
19508;BME280;40157;42.566;27.526;2023-04-19T03:46:43;100445.78;;;13.48;92.10
19508;BME280;40157;42.566;27.526;2023-04-19T03:48:45;100427.38;;;13.36;91.95
19508;BME280;40157;42.566;27.526;2023-04-19T03:50:45;100424.72;;;13.45;91.97
19508;BME280;40157;42.566;27.526;2023-04-19T03:52:46;100430.00;;;13.45;91.78
19508;BME280;40157;42.566;27.526;2023-04-19T03:54:46;100439.66;;;13.49;91.64
19508;BME280;40157;42.566;27.526;2023-04-19T03:56:47;100437.03;;;13.51;91.58
19508;BME280;40157;42.566;27.526;2023-04-19T03:58:50;100437.88;;;13.48;91.57
19508;BME280;40157;42.566;27.526;2023-04-19T04:00:50;100448.44;;;13.55;91.43
19508;BME280;40157;42.566;27.526;2023-04-19T04:02:51;100430.88;;;13.44;91.47
19508;BME280;40157;42.566;27.526;2023-04-19T04:04:54;100434.38;;;13.46;91.53
19508;BME280;40157;42.566;27.526;2023-04-19T04:06:55;100404.53;;;13.37;91.44
19508;BME280;40157;42.566;27.526;2023-04-19T04:08:56;100420.31;;;13.50;91.39
19508;BME280;40157;42.566;27.526;2023-04-19T04:10:56;100430.88;;;13.54;91.47
19508;BME280;40157;42.566;27.526;2023-04-19T04:12:56;100450.16;;;13.62;91.44
19508;BME280;40157;42.566;27.526;2023-04-19T04:14:57;100431.75;;;13.56;91.17
19508;BME280;40157;42.566;27.526;2023-04-19T04:16:57;100404.56;;;13.44;91.10
19508;BME280;40157;42.566;27.526;2023-04-19T04:18:58;100399.28;;;13.35;90.94
19508;BME280;40157;42.566;27.526;2023-04-19T04:20:58;100445.78;;;13.65;91.00
19508;BME280;40157;42.566;27.526;2023-04-19T04:22:59;100430.88;;;13.57;90.88
19508;BME280;40157;42.566;27.526;2023-04-19T04:25:00;100429.13;;;13.53;90.88
19508;BME280;40157;42.566;27.526;2023-04-19T04:27:01;100394.00;;;13.35;90.79
19508;BME280;40157;42.566;27.526;2023-04-19T04:29:02;100423.84;;;13.49;90.79
19508;BME280;40157;42.566;27.526;2023-04-19T04:31:02;100442.28;;;13.48;91.21
19508;BME280;40157;42.566;27.526;2023-04-19T04:33:03;100448.41;;;13.47;91.59
19508;BME280;40157;42.566;27.526;2023-04-19T04:35:04;100423.84;;;13.42;91.55
19508;BME280;40157;42.566;27.526;2023-04-19T04:37:05;100451.94;;;13.60;91.26
19508;BME280;40157;42.566;27.526;2023-04-19T04:39:07;100429.13;;;13.53;91.66
19508;BME280;40157;42.566;27.526;2023-04-19T04:41:11;100423.84;;;13.49;91.47
19508;BME280;40157;42.566;27.526;2023-04-19T04:43:11;100446.66;;;13.63;91.39
19508;BME280;40157;42.566;27.526;2023-04-19T04:45:12;100450.19;;;13.71;91.49
19508;BME280;40157;42.566;27.526;2023-04-19T04:47:13;100438.78;;;13.67;92.83
19508;BME280;40157;42.566;27.526;2023-04-19T04:49:13;100458.94;;;13.79;93.47
19508;BME280;40157;42.566;27.526;2023-04-19T04:51:13;100439.63;;;13.71;92.65
19508;BME280;40157;42.566;27.526;2023-04-19T04:53:14;100450.19;;;13.77;92.55
19508;BME280;40157;42.566;27.526;2023-04-19T04:55:14;100390.50;;;13.36;92.28
19508;BME280;40157;42.566;27.526;2023-04-19T04:57:15;100453.69;;;13.78;92.01
19508;BME280;40157;42.566;27.526;2023-04-19T04:59:16;100387.84;;;13.44;91.92
19508;BME280;40157;42.566;27.526;2023-04-19T05:01:17;100411.56;;;13.58;91.79
19508;BME280;40157;42.566;27.526;2023-04-19T05:03:18;100437.00;;;13.74;91.75
19508;BME280;40157;42.566;27.526;2023-04-19T05:05:19;100464.19;;;13.98;93.52
19508;BME280;40157;42.566;27.526;2023-04-19T05:07:19;100439.56;;;13.99;94.22
19508;BME280;40157;42.566;27.526;2023-04-19T05:09:20;100424.63;;;14.05;94.58
19508;BME280;40157;42.566;27.526;2023-04-19T05:11:20;100436.91;;;14.19;94.41
19508;BME280;40157;42.566;27.526;2023-04-19T05:13:21;100456.19;;;14.29;94.08
19508;BME280;40157;42.566;27.526;2023-04-19T05:15:21;100437.78;;;14.13;92.77
19508;BME280;40157;42.566;27.526;2023-04-19T05:17:22;100445.63;;;14.33;92.04
19508;BME280;40157;42.566;27.526;2023-04-19T05:19:22;100439.47;;;14.30;91.10
19508;BME280;40157;42.566;27.526;2023-04-19T05:21:23;100464.94;;;14.35;89.95
19508;BME280;40157;42.566;27.526;2023-04-19T05:23:23;100462.31;;;14.34;89.36
19508;BME280;40157;42.566;27.526;2023-04-19T05:25:23;100454.44;;;14.32;89.31
19508;BME280;40157;42.566;27.526;2023-04-19T05:27:24;100455.31;;;14.33;89.16
19508;BME280;40157;42.566;27.526;2023-04-19T05:29:25;100460.56;;;14.30;89.08
19508;BME280;40157;42.566;27.526;2023-04-19T05:31:25;100450.03;;;14.20;89.28
19508;BME280;40157;42.566;27.526;2023-04-19T05:33:25;100457.09;;;14.24;89.48
19508;BME280;40157;42.566;27.526;2023-04-19T05:35:26;100446.53;;;14.21;89.62
19508;BME280;40157;42.566;27.526;2023-04-19T05:37:26;100448.31;;;14.19;89.53
19508;BME280;40157;42.566;27.526;2023-04-19T05:39:27;100457.97;;;14.22;90.00
19508;BME280;40157;42.566;27.526;2023-04-19T05:41:27;100461.44;;;14.27;90.06
19508;BME280;40157;42.566;27.526;2023-04-19T05:43:28;100445.69;;;14.10;90.45
19508;BME280;40157;42.566;27.526;2023-04-19T05:45:28;100428.16;;;14.01;90.70
19508;BME280;40157;42.566;27.526;2023-04-19T05:47:32;100459.78;;;14.12;91.07
19508;BME280;40157;42.566;27.526;2023-04-19T05:49:32;100375.53;;;13.71;91.01
19508;BME280;40157;42.566;27.526;2023-04-19T05:51:33;100464.09;;;14.29;91.13
19508;BME280;40157;42.566;27.526;2023-04-19T05:53:33;100381.63;;;13.82;90.93
19508;BME280;40157;42.566;27.526;2023-04-19T05:55:34;100444.78;;;14.22;90.61
19508;BME280;40157;42.566;27.526;2023-04-19T05:57:34;100456.22;;;14.25;90.40
19508;BME280;40157;42.566;27.526;2023-04-19T05:59:34;100451.78;;;14.32;90.36
19508;BME280;40157;42.566;27.526;2023-04-19T06:01:35;100450.00;;;14.39;90.25
19508;BME280;40157;42.566;27.526;2023-04-19T06:03:35;100459.63;;;14.49;89.81
19508;BME280;40157;42.566;27.526;2023-04-19T06:05:36;100465.78;;;14.53;89.97
19508;BME280;40157;42.566;27.526;2023-04-19T06:07:36;100460.50;;;14.51;89.35
19508;BME280;40157;42.566;27.526;2023-04-19T06:09:37;100447.31;;;14.51;89.19
19508;BME280;40157;42.566;27.526;2023-04-19T06:11:37;100455.22;;;14.54;88.66
19508;BME280;40157;42.566;27.526;2023-04-19T06:13:38;100439.41;;;14.45;88.61
19508;BME280;40157;42.566;27.526;2023-04-19T06:15:38;100444.66;;;14.54;88.31
19508;BME280;40157;42.566;27.526;2023-04-19T06:17:39;100441.13;;;14.55;88.03
19508;BME280;40157;42.566;27.526;2023-04-19T06:19:39;100423.56;;;14.51;88.02
19508;BME280;40157;42.566;27.526;2023-04-19T06:21:40;100375.31;;;14.29;87.65
19508;BME280;40157;42.566;27.526;2023-04-19T06:23:41;100483.22;;;14.92;87.57
19508;BME280;40157;42.566;27.526;2023-04-19T06:25:41;100413.00;;;14.56;87.29
19508;BME280;40157;42.566;27.526;2023-04-19T06:27:41;100481.41;;;14.97;87.18
19508;BME280;40157;42.566;27.526;2023-04-19T06:29:42;100412.09;;;14.57;86.71
19508;BME280;40157;42.566;27.526;2023-04-19T06:31:42;100474.34;;;15.03;86.53
19508;BME280;40157;42.566;27.526;2023-04-19T06:33:43;100448.91;;;14.89;86.52
19508;BME280;40157;42.566;27.526;2023-04-19T06:35:43;100455.91;;;14.95;86.30
19508;BME280;40157;42.566;27.526;2023-04-19T06:37:44;100476.06;;;15.04;86.33
19508;BME280;40157;42.566;27.526;2023-04-19T06:39:44;100476.03;;;15.10;86.20
19508;BME280;40157;42.566;27.526;2023-04-19T06:41:45;100475.19;;;15.08;86.25
19508;BME280;40157;42.566;27.526;2023-04-19T06:43:45;100493.56;;;15.20;86.24
19508;BME280;40157;42.566;27.526;2023-04-19T06:45:46;100490.06;;;15.21;85.96
19508;BME280;40157;42.566;27.526;2023-04-19T06:47:47;100433.94;;;14.88;85.95
19508;BME280;40157;42.566;27.526;2023-04-19T06:49:47;100487.44;;;15.20;85.91
19508;BME280;40157;42.566;27.526;2023-04-19T06:51:48;100479.53;;;15.15;85.78
19508;BME280;40157;42.566;27.526;2023-04-19T06:53:49;100485.66;;;15.18;85.85
19508;BME280;40157;42.566;27.526;2023-04-19T06:55:56;100492.72;;;15.15;85.45
19508;BME280;40157;42.566;27.526;2023-04-19T06:57:56;100498.00;;;15.16;85.13
19508;BME280;40157;42.566;27.526;2023-04-19T06:59:57;100488.38;;;15.11;84.81
19508;BME280;40157;42.566;27.526;2023-04-19T07:01:58;100500.66;;;15.12;84.75
19508;BME280;40157;42.566;27.526;2023-04-19T07:03:58;100493.66;;;15.09;84.62
19508;BME280;40157;42.566;27.526;2023-04-19T07:05:59;100452.50;;;14.79;84.54
19508;BME280;40157;42.566;27.526;2023-04-19T07:07:59;100520.00;;;15.17;84.57
19508;BME280;40157;42.566;27.526;2023-04-19T07:10:00;100521.78;;;15.15;84.44
19508;BME280;40157;42.566;27.526;2023-04-19T07:12:00;100492.84;;;14.96;84.47
19508;BME280;40157;42.566;27.526;2023-04-19T07:14:01;100495.47;;;14.96;84.74
19508;BME280;40157;42.566;27.526;2023-04-19T07:16:05;100498.97;;;14.98;84.69
19508;BME280;40157;42.566;27.526;2023-04-19T07:18:06;100521.78;;;15.12;84.79
19508;BME280;40157;42.566;27.526;2023-04-19T07:20:07;100520.06;;;15.11;84.48
19508;BME280;40157;42.566;27.526;2023-04-19T07:22:08;100504.25;;;14.98;84.45
19508;BME280;40157;42.566;27.526;2023-04-19T07:24:08;100525.38;;;15.05;84.14
19508;BME280;40157;42.566;27.526;2023-04-19T07:26:09;100488.53;;;14.82;84.02
19508;BME280;40157;42.566;27.526;2023-04-19T07:28:09;100486.81;;;14.76;83.76
19508;BME280;40157;42.566;27.526;2023-04-19T07:30:10;100509.63;;;14.86;83.75
19508;BME280;40157;42.566;27.526;2023-04-19T07:32:11;100492.09;;;14.73;83.67
19508;BME280;40157;42.566;27.526;2023-04-19T07:34:12;100530.75;;;14.86;83.94
19508;BME280;40157;42.566;27.526;2023-04-19T07:36:13;100533.38;;;14.89;84.26
19508;BME280;40157;42.566;27.526;2023-04-19T07:38:13;100537.75;;;14.90;84.24
19508;BME280;40157;42.566;27.526;2023-04-19T07:40:14;100532.50;;;14.86;83.87
19508;BME280;40157;42.566;27.526;2023-04-19T07:42:14;100473.69;;;14.51;83.56
19508;BME280;40157;42.566;27.526;2023-04-19T07:44:15;100500.06;;;14.60;83.65
19508;BME280;40157;42.566;27.526;2023-04-19T07:46:15;100519.34;;;14.73;83.53
19508;BME280;40157;42.566;27.526;2023-04-19T07:48:16;100532.53;;;14.81;83.94
19508;BME280;40157;42.566;27.526;2023-04-19T07:50:16;100514.06;;;14.73;83.74
19508;BME280;40157;42.566;27.526;2023-04-19T07:52:17;100526.34;;;14.84;84.03
19508;BME280;40157;42.566;27.526;2023-04-19T07:54:17;100543.00;;;14.93;84.21
19508;BME280;40157;42.566;27.526;2023-04-19T07:56:21;100538.59;;;14.98;84.61
19508;BME280;40157;42.566;27.526;2023-04-19T07:58:21;100514.03;;;14.83;84.38
19508;BME280;40157;42.566;27.526;2023-04-19T08:00:22;100534.22;;;14.94;84.24
19508;BME280;40157;42.566;27.526;2023-04-19T08:02:24;100529.81;;;14.95;83.83
19508;BME280;40157;42.566;27.526;2023-04-19T08:04:25;100527.19;;;14.90;83.67
19508;BME280;40157;42.566;27.526;2023-04-19T08:06:26;100536.84;;;14.96;83.08
19508;BME280;40157;42.566;27.526;2023-04-19T08:08:27;100550.94;;;14.93;83.26
19508;BME280;40157;42.566;27.526;2023-04-19T08:10:29;100547.41;;;14.97;83.25
19508;BME280;40157;42.566;27.526;2023-04-19T08:12:29;100542.16;;;14.93;83.16
19508;BME280;40157;42.566;27.526;2023-04-19T08:14:30;100530.75;;;14.78;83.19
19508;BME280;40157;42.566;27.526;2023-04-19T08:16:30;100530.75;;;14.80;83.05
19508;BME280;40157;42.566;27.526;2023-04-19T08:18:32;100541.31;;;14.80;82.88
19508;BME280;40157;42.566;27.526;2023-04-19T08:20:33;100547.44;;;14.84;82.88
19508;BME280;40157;42.566;27.526;2023-04-19T08:22:33;100523.75;;;14.76;82.92
19508;BME280;40157;42.566;27.526;2023-04-19T08:24:34;100527.25;;;14.78;83.07
19508;BME280;40157;42.566;27.526;2023-04-19T08:26:34;100540.44;;;14.87;83.00
19508;BME280;40157;42.566;27.526;2023-04-19T08:28:35;100545.66;;;14.92;83.17
19508;BME280;40157;42.566;27.526;2023-04-19T08:30:35;100521.97;;;14.78;82.64
19508;BME280;40157;42.566;27.526;2023-04-19T08:32:36;100537.78;;;14.84;82.84
19508;BME280;40157;42.566;27.526;2023-04-19T08:34:38;100535.09;;;14.89;82.66
19508;BME280;40157;42.566;27.526;2023-04-19T08:36:38;100541.28;;;14.95;82.69
19508;BME280;40157;42.566;27.526;2023-04-19T08:38:39;100524.56;;;14.89;82.58
19508;BME280;40157;42.566;27.526;2023-04-19T08:40:45;100527.19;;;14.93;83.13
19508;BME280;40157;42.566;27.526;2023-04-19T08:42:46;100537.72;;;14.93;83.36
19508;BME280;40157;42.566;27.526;2023-04-19T08:44:47;100532.44;;;14.96;83.35
19508;BME280;40157;42.566;27.526;2023-04-19T08:46:48;100509.63;;;14.83;83.58
19508;BME280;40157;42.566;27.526;2023-04-19T08:48:50;100545.66;;;14.95;82.76
19508;BME280;40157;42.566;27.526;2023-04-19T08:50:50;100527.25;;;14.84;82.35
19508;BME280;40157;42.566;27.526;2023-04-19T08:52:51;100534.25;;;14.85;81.95
19508;BME280;40157;42.566;27.526;2023-04-19T08:54:54;100543.00;;;14.96;81.84
19508;BME280;40157;42.566;27.526;2023-04-19T08:56:58;100542.13;;;14.96;81.81
19508;BME280;40157;42.566;27.526;2023-04-19T08:58:59;100542.16;;;14.90;82.28
19508;BME280;40157;42.566;27.526;2023-04-19T09:01:03;100550.94;;;14.96;82.52
19508;BME280;40157;42.566;27.526;2023-04-19T09:03:06;100549.13;;;15.02;83.01
19508;BME280;40157;42.566;27.526;2023-04-19T09:05:07;100516.66;;;14.87;83.55
19508;BME280;40157;42.566;27.526;2023-04-19T09:07:07;100548.25;;;15.04;83.17
19508;BME280;40157;42.566;27.526;2023-04-19T09:09:16;100539.44;;;15.04;83.41
19508;BME280;40157;42.566;27.526;2023-04-19T09:11:17;100538.59;;;14.98;83.23
19508;BME280;40157;42.566;27.526;2023-04-19T09:13:19;100548.28;;;14.99;83.33
19508;BME280;40157;42.566;27.526;2023-04-19T09:15:34;100539.50;;;14.97;82.97
19508;BME280;40157;42.566;27.526;2023-04-19T09:17:36;100548.28;;;14.99;83.25
19508;BME280;40157;42.566;27.526;2023-04-19T09:19:48;100532.44;;;14.93;83.82
19508;BME280;40157;42.566;27.526;2023-04-19T09:21:48;100548.28;;;14.99;83.91
19508;BME280;40157;42.566;27.526;2023-04-19T09:23:50;100552.69;;;14.97;84.15
19508;BME280;40157;42.566;27.526;2023-04-19T09:25:59;100564.13;;;14.93;84.58
19508;BME280;40157;42.566;27.526;2023-04-19T09:28:13;100553.59;;;14.90;84.81
19508;BME280;40157;42.566;27.526;2023-04-19T09:30:13;100547.50;;;14.80;84.95
19508;BME280;40157;42.566;27.526;2023-04-19T09:32:14;100541.31;;;14.77;85.01
19508;BME280;40157;42.566;27.526;2023-04-19T09:34:18;100536.03;;;14.77;85.34
19508;BME280;40157;42.566;27.526;2023-04-19T09:36:29;100555.34;;;14.88;85.04
19508;BME280;40157;42.566;27.526;2023-04-19T09:38:45;100553.63;;;14.87;85.17
19508;BME280;40157;42.566;27.526;2023-04-19T09:40:46;100541.31;;;14.86;84.67
19508;BME280;40157;42.566;27.526;2023-04-19T09:42:46;100508.81;;;14.72;84.47
19508;BME280;40157;42.566;27.526;2023-04-19T09:44:59;100550.91;;;15.06;84.55
19508;BME280;40157;42.566;27.526;2023-04-19T09:47:00;100520.16;;;14.89;84.79
19508;BME280;40157;42.566;27.526;2023-04-19T09:51:13;100559.66;;;15.11;84.10
19508;BME280;40157;42.566;27.526;2023-04-19T09:53:13;100571.91;;;15.23;84.22
19508;BME280;40157;42.566;27.526;2023-04-19T09:55:14;100567.50;;;15.23;84.10
19508;BME280;40157;42.566;27.526;2023-04-19T09:57:15;100540.28;;;15.13;84.17
19508;BME280;40157;42.566;27.526;2023-04-19T09:59:16;100552.53;;;15.24;83.91
19508;BME280;40157;42.566;27.526;2023-04-19T10:01:18;100527.97;;;15.12;83.79
19508;BME280;40157;42.566;27.526;2023-04-19T10:03:19;100561.28;;;15.32;83.90
19508;BME280;40157;42.566;27.526;2023-04-19T10:05:21;100563.91;;;15.36;84.55
19508;BME280;40157;42.566;27.526;2023-04-19T10:07:23;100545.41;;;15.36;85.10
19508;BME280;40157;42.566;27.526;2023-04-19T10:09:24;100572.69;;;15.42;83.92
19508;BME280;40157;42.566;27.526;2023-04-19T10:11:31;100550.78;;;15.29;82.70
19508;BME280;40157;42.566;27.526;2023-04-19T10:13:38;100560.41;;;15.34;82.34
19508;BME280;40157;42.566;27.526;2023-04-19T10:15:40;100532.31;;;15.18;82.24
19508;BME280;40157;42.566;27.526;2023-04-19T10:17:43;100563.97;;;15.27;82.00
19508;BME280;40157;42.566;27.526;2023-04-19T10:19:44;100570.13;;;15.28;81.64
19508;BME280;40157;42.566;27.526;2023-04-19T10:21:47;100537.69;;;15.03;81.00
19508;BME280;40157;42.566;27.526;2023-04-19T10:23:48;100556.16;;;15.09;81.15
19508;BME280;40157;42.566;27.526;2023-04-19T10:25:55;100544.75;;;14.99;81.33
19508;BME280;40157;42.566;27.526;2023-04-19T10:27:56;100569.38;;;15.07;81.46